VLG9VF LEBL-LPPT
Flight info
| Callsign | VLG9VF |
|---|---|
| Flight time | N/A |
| Altitude | 33000 |
| Route | SENIA DCT DORMI DCT CRETA DCT NEXAS DCT DISVU DCT ADUXO/N0447F350 N975 CCS DCT ELVAR DCT EXONA |
| Aircraft | A20N/M-SDE2E3FGHIRWXY/LB1 |
Departure
| Time | 2026-05-04 19:06 |
|---|---|
| Airport | Josep Tarradellas Barcelona-El Prat Airport (LEBL) |
Arrival
| Time | N/A |
|---|---|
| Airport | Lisbon Humberto Delgado Airport (LPPT) |
| Time | Latitude | Longitude | Altitude | Speed | Heading |
|---|---|---|---|---|---|
| 2026-05-04 18:04 | 41.28745 | 2.07753 | 16 ft | 0 kts | 323° |
| 2026-05-04 18:05 | 41.28950 | 2.07781 | 18 ft | 0 kts | 335° |
| 2026-05-04 18:52 | 41.28937 | 2.07788 | -11 ft | 3 kts | 335° |
| 2026-05-04 18:52 | 41.28915 | 2.07801 | 16 ft | 3 kts | 335° |
| 2026-05-04 18:53 | 41.28895 | 2.07815 | 17 ft | 3 kts | 330° |
| 2026-05-04 18:53 | 41.28875 | 2.07831 | 16 ft | 3 kts | 323° |
| 2026-05-04 18:53 | 41.28856 | 2.07849 | 17 ft | 2 kts | 328° |
| 2026-05-04 18:53 | 41.28851 | 2.07853 | 18 ft | 0 kts | 328° |
| 2026-05-04 18:56 | 41.28856 | 2.07850 | 17 ft | 2 kts | 330° |
| 2026-05-04 18:56 | 41.28873 | 2.07857 | 18 ft | 4 kts | 31° |
| 2026-05-04 18:57 | 41.28892 | 2.07896 | 16 ft | 4 kts | 65° |
| 2026-05-04 18:57 | 41.28908 | 2.07943 | 18 ft | 7 kts | 66° |
| 2026-05-04 18:57 | 41.28901 | 2.08000 | 18 ft | 7 kts | 136° |
| 2026-05-04 18:57 | 41.28853 | 2.08029 | 16 ft | 9 kts | 156° |
| 2026-05-04 18:58 | 41.28802 | 2.08059 | 16 ft | 6 kts | 156° |
| 2026-05-04 18:58 | 41.28757 | 2.08087 | 19 ft | 9 kts | 150° |
| 2026-05-04 18:58 | 41.28748 | 2.08164 | 18 ft | 10 kts | 68° |
| 2026-05-04 18:58 | 41.28738 | 2.08229 | 17 ft | 8 kts | 142° |
| 2026-05-04 18:59 | 41.28700 | 2.08268 | 16 ft | 5 kts | 90° |
| 2026-05-04 18:59 | 41.28724 | 2.08322 | 18 ft | 9 kts | 61° |
| 2026-05-04 18:59 | 41.28753 | 2.08404 | 18 ft | 11 kts | 65° |
| 2026-05-04 18:59 | 41.28786 | 2.08506 | 18 ft | 14 kts | 68° |
| 2026-05-04 19:00 | 41.28830 | 2.08637 | 17 ft | 17 kts | 66° |
| 2026-05-04 19:00 | 41.28885 | 2.08796 | 17 ft | 20 kts | 62° |
| 2026-05-04 19:00 | 41.28945 | 2.08965 | 16 ft | 20 kts | 68° |
| 2026-05-04 19:00 | 41.29005 | 2.09145 | 17 ft | 22 kts | 65° |
| 2026-05-04 19:01 | 41.29073 | 2.09342 | 17 ft | 24 kts | 65° |
| 2026-05-04 19:01 | 41.29142 | 2.09546 | 17 ft | 22 kts | 66° |
| 2026-05-04 19:01 | 41.29198 | 2.09706 | 17 ft | 19 kts | 64° |
| 2026-05-04 19:01 | 41.29247 | 2.09844 | 17 ft | 16 kts | 66° |
| 2026-05-04 19:02 | 41.29288 | 2.09946 | 18 ft | 12 kts | 52° |
| 2026-05-04 19:02 | 41.29327 | 2.10050 | 18 ft | 11 kts | 73° |
| 2026-05-04 19:02 | 41.29303 | 2.10161 | 18 ft | 14 kts | 114° |
| 2026-05-04 19:02 | 41.29269 | 2.10270 | 15 ft | 12 kts | 110° |
| 2026-05-04 19:03 | 41.29226 | 2.10306 | 16 ft | 5 kts | 179° |
| 2026-05-04 19:03 | 41.29210 | 2.10287 | 15 ft | 0 kts | 243° |
| 2026-05-04 19:04 | 41.29209 | 2.10287 | 15 ft | 0 kts | 243° |
| 2026-05-04 19:05 | 41.29202 | 2.10267 | 16 ft | 13 kts | 244° |
| 2026-05-04 19:05 | 41.29055 | 2.09849 | 19 ft | 86 kts | 245° |
| 2026-05-04 19:06 | 41.28722 | 2.08884 | 23 ft | 141 kts | 245° |
| 2026-05-04 19:06 | 41.28279 | 2.07673 | 482 ft | 147 kts | 243° |
| 2026-05-04 19:06 | 41.27871 | 2.06664 | 940 ft | 152 kts | 241° |
| 2026-05-04 19:06 | 41.27660 | 2.06180 | 1175 ft | 153 kts | 240° |
| 2026-05-04 19:07 | 41.26908 | 2.05187 | 1807 ft | 157 kts | 203° |
| 2026-05-04 19:07 | 41.25816 | 2.05152 | 2450 ft | 162 kts | 168° |
| 2026-05-04 19:07 | 41.24786 | 2.05786 | 3082 ft | 163 kts | 161° |
| 2026-05-04 19:07 | 41.23732 | 2.06165 | 3658 ft | 158 kts | 178° |
| 2026-05-04 19:08 | 41.22680 | 2.06233 | 4027 ft | 167 kts | 186° |
| 2026-05-04 19:08 | 41.21785 | 2.06173 | 4322 ft | 175 kts | 188° |
| 2026-05-04 19:08 | 41.21569 | 2.06152 | 4386 ft | 177 kts | 189° |
| 2026-05-04 19:09 | 41.21319 | 2.06125 | 4462 ft | 179 kts | 189° |
| 2026-05-04 19:09 | 41.21047 | 2.06094 | 4548 ft | 181 kts | 189° |
| 2026-05-04 19:09 | 41.19813 | 2.05947 | 4898 ft | 191 kts | 189° |
| 2026-05-04 19:09 | 41.18538 | 2.05795 | 5232 ft | 198 kts | 191° |
| 2026-05-04 19:10 | 41.17206 | 2.05378 | 5583 ft | 201 kts | 204° |
| 2026-05-04 19:10 | 41.15943 | 2.04575 | 5958 ft | 203 kts | 212° |
| 2026-05-04 19:10 | 41.14688 | 2.03696 | 6334 ft | 205 kts | 211° |
| 2026-05-04 19:10 | 41.14030 | 2.03244 | 6511 ft | 206 kts | 211° |
| 2026-05-04 19:11 | 41.13130 | 2.02629 | 6787 ft | 206 kts | 211° |
| 2026-05-04 19:11 | 41.12707 | 2.02341 | 6905 ft | 206 kts | 211° |
| 2026-05-04 19:11 | 41.11585 | 2.01578 | 7205 ft | 207 kts | 211° |
| 2026-05-04 19:11 | 41.11382 | 2.01440 | 7262 ft | 207 kts | 211° |